sensor_id;sensor_type;location;lat;lon;timestamp;P1;durP1;ratioP1;P2;durP2;ratioP2
15614;SDS011;7907;51.368;6.730;2022-10-01T00:01:05;2.03;;;1.70;;
15614;SDS011;7907;51.368;6.730;2022-10-01T00:03:33;2.55;;;1.63;;
15614;SDS011;7907;51.368;6.730;2022-10-01T00:06:02;1.92;;;1.60;;
15614;SDS011;7907;51.368;6.730;2022-10-01T00:08:33;2.42;;;1.60;;
15614;SDS011;7907;51.368;6.730;2022-10-01T00:11:05;1.77;;;1.67;;
15614;SDS011;7907;51.368;6.730;2022-10-01T00:13:33;2.03;;;1.63;;
15614;SDS011;7907;51.368;6.730;2022-10-01T00:16:03;4.07;;;1.85;;
15614;SDS011;7907;51.368;6.730;2022-10-01T00:18:33;1.90;;;1.60;;
15614;SDS011;7907;51.368;6.730;2022-10-01T00:21:05;3.22;;;2.08;;
15614;SDS011;7907;51.368;6.730;2022-10-01T00:23:33;3.05;;;1.95;;
15614;SDS011;7907;51.368;6.730;2022-10-01T00:26:09;2.20;;;2.00;;
15614;SDS011;7907;51.368;6.730;2022-10-01T00:28:38;3.80;;;2.15;;
15614;SDS011;7907;51.368;6.730;2022-10-01T00:31:05;2.60;;;1.88;;
15614;SDS011;7907;51.368;6.730;2022-10-01T00:33:33;3.38;;;2.08;;
15614;SDS011;7907;51.368;6.730;2022-10-01T00:36:01;3.95;;;2.30;;
15614;SDS011;7907;51.368;6.730;2022-10-01T00:38:29;2.95;;;1.90;;
15614;SDS011;7907;51.368;6.730;2022-10-01T00:40:57;2.17;;;1.67;;
15614;SDS011;7907;51.368;6.730;2022-10-01T00:43:27;2.50;;;2.00;;
15614;SDS011;7907;51.368;6.730;2022-10-01T00:45:56;2.00;;;1.80;;
15614;SDS011;7907;51.368;6.730;2022-10-01T00:48:26;4.70;;;2.40;;
15614;SDS011;7907;51.368;6.730;2022-10-01T00:50:55;2.50;;;2.30;;
15614;SDS011;7907;51.368;6.730;2022-10-01T00:53:23;1.98;;;1.77;;
15614;SDS011;7907;51.368;6.730;2022-10-01T00:55:51;3.45;;;2.00;;
15614;SDS011;7907;51.368;6.730;2022-10-01T00:58:20;2.38;;;2.15;;
15614;SDS011;7907;51.368;6.730;2022-10-01T01:00:52;3.80;;;2.17;;
15614;SDS011;7907;51.368;6.730;2022-10-01T01:03:20;3.75;;;2.10;;
15614;SDS011;7907;51.368;6.730;2022-10-01T01:05:47;2.72;;;2.10;;
15614;SDS011;7907;51.368;6.730;2022-10-01T01:08:14;2.53;;;2.00;;
15614;SDS011;7907;51.368;6.730;2022-10-01T01:10:44;3.38;;;2.30;;
15614;SDS011;7907;51.368;6.730;2022-10-01T01:13:22;2.10;;;1.60;;
15614;SDS011;7907;51.368;6.730;2022-10-01T01:15:58;2.53;;;1.98;;
15614;SDS011;7907;51.368;6.730;2022-10-01T01:18:32;4.47;;;2.00;;
15614;SDS011;7907;51.368;6.730;2022-10-01T01:21:18;4.97;;;1.90;;
15614;SDS011;7907;51.368;6.730;2022-10-01T01:24:00;2.40;;;1.98;;
15614;SDS011;7907;51.368;6.730;2022-10-01T01:26:53;1.70;;;1.52;;
15614;SDS011;7907;51.368;6.730;2022-10-01T01:29:33;1.95;;;1.80;;
15614;SDS011;7907;51.368;6.730;2022-10-01T01:32:06;2.03;;;1.70;;
15614;SDS011;7907;51.368;6.730;2022-10-01T01:34:38;4.60;;;1.85;;
15614;SDS011;7907;51.368;6.730;2022-10-01T01:37:10;2.13;;;1.70;;
15614;SDS011;7907;51.368;6.730;2022-10-01T01:39:41;3.05;;;2.10;;
15614;SDS011;7907;51.368;6.730;2022-10-01T01:42:13;2.88;;;2.08;;
15614;SDS011;7907;51.368;6.730;2022-10-01T01:44:46;2.07;;;1.70;;
15614;SDS011;7907;51.368;6.730;2022-10-01T01:47:18;2.33;;;2.00;;
15614;SDS011;7907;51.368;6.730;2022-10-01T01:49:49;1.83;;;1.65;;
15614;SDS011;7907;51.368;6.730;2022-10-01T01:52:19;2.17;;;1.63;;
15614;SDS011;7907;51.368;6.730;2022-10-01T01:54:47;2.60;;;1.70;;
15614;SDS011;7907;51.368;6.730;2022-10-01T01:57:16;2.83;;;2.27;;
15614;SDS011;7907;51.368;6.730;2022-10-01T01:59:46;2.30;;;1.75;;
15614;SDS011;7907;51.368;6.730;2022-10-01T02:02:14;1.80;;;1.60;;
15614;SDS011;7907;51.368;6.730;2022-10-01T02:04:45;3.53;;;2.10;;
15614;SDS011;7907;51.368;6.730;2022-10-01T02:10:19;3.88;;;1.83;;
15614;SDS011;7907;51.368;6.730;2022-10-01T02:13:05;1.83;;;1.70;;
15614;SDS011;7907;51.368;6.730;2022-10-01T02:15:47;3.22;;;1.83;;
15614;SDS011;7907;51.368;6.730;2022-10-01T02:18:27;3.70;;;3.03;;
15614;SDS011;7907;51.368;6.730;2022-10-01T02:21:00;2.78;;;2.15;;
15614;SDS011;7907;51.368;6.730;2022-10-01T02:23:36;2.20;;;2.00;;
15614;SDS011;7907;51.368;6.730;2022-10-01T02:26:10;2.03;;;1.70;;
15614;SDS011;7907;51.368;6.730;2022-10-01T02:28:40;2.95;;;2.50;;
15614;SDS011;7907;51.368;6.730;2022-10-01T02:31:10;2.20;;;1.60;;
15614;SDS011;7907;51.368;6.730;2022-10-01T02:33:39;2.35;;;1.63;;
15614;SDS011;7907;51.368;6.730;2022-10-01T02:36:09;3.20;;;1.83;;
15614;SDS011;7907;51.368;6.730;2022-10-01T02:38:39;1.95;;;1.60;;
15614;SDS011;7907;51.368;6.730;2022-10-01T02:41:10;2.15;;;1.95;;
15614;SDS011;7907;51.368;6.730;2022-10-01T02:43:43;2.35;;;1.75;;
15614;SDS011;7907;51.368;6.730;2022-10-01T02:46:19;2.35;;;1.65;;
15614;SDS011;7907;51.368;6.730;2022-10-01T02:48:51;3.38;;;1.90;;
15614;SDS011;7907;51.368;6.730;2022-10-01T02:51:23;2.17;;;1.80;;
15614;SDS011;7907;51.368;6.730;2022-10-01T02:53:58;2.45;;;1.95;;
15614;SDS011;7907;51.368;6.730;2022-10-01T02:56:32;1.55;;;1.40;;
15614;SDS011;7907;51.368;6.730;2022-10-01T02:59:18;1.63;;;1.43;;
15614;SDS011;7907;51.368;6.730;2022-10-01T03:01:47;1.63;;;1.53;;
15614;SDS011;7907;51.368;6.730;2022-10-01T03:04:14;1.83;;;1.70;;
15614;SDS011;7907;51.368;6.730;2022-10-01T03:06:43;2.95;;;2.10;;
15614;SDS011;7907;51.368;6.730;2022-10-01T03:09:10;1.85;;;1.70;;
15614;SDS011;7907;51.368;6.730;2022-10-01T03:15:00;2.00;;;1.80;;
15614;SDS011;7907;51.368;6.730;2022-10-01T03:17:29;3.50;;;1.73;;
15614;SDS011;7907;51.368;6.730;2022-10-01T03:19:56;1.80;;;1.60;;
15614;SDS011;7907;51.368;6.730;2022-10-01T03:22:23;2.40;;;1.90;;
15614;SDS011;7907;51.368;6.730;2022-10-01T03:24:51;4.22;;;1.38;;
15614;SDS011;7907;51.368;6.730;2022-10-01T03:27:19;2.03;;;1.70;;
15614;SDS011;7907;51.368;6.730;2022-10-01T03:29:46;4.05;;;1.85;;
15614;SDS011;7907;51.368;6.730;2022-10-01T03:32:14;2.53;;;1.65;;
15614;SDS011;7907;51.368;6.730;2022-10-01T03:34:43;2.38;;;1.83;;
15614;SDS011;7907;51.368;6.730;2022-10-01T03:37:10;1.83;;;1.50;;
15614;SDS011;7907;51.368;6.730;2022-10-01T03:39:38;1.52;;;1.30;;
15614;SDS011;7907;51.368;6.730;2022-10-01T03:42:05;1.50;;;1.25;;
15614;SDS011;7907;51.368;6.730;2022-10-01T03:44:32;1.58;;;1.30;;
15614;SDS011;7907;51.368;6.730;2022-10-01T03:46:59;1.80;;;1.42;;
15614;SDS011;7907;51.368;6.730;2022-10-01T03:49:26;2.10;;;1.90;;
15614;SDS011;7907;51.368;6.730;2022-10-01T03:51:55;2.22;;;1.85;;
15614;SDS011;7907;51.368;6.730;2022-10-01T03:54:22;1.65;;;1.55;;
15614;SDS011;7907;51.368;6.730;2022-10-01T03:56:49;3.03;;;1.30;;
15614;SDS011;7907;51.368;6.730;2022-10-01T03:59:16;2.63;;;2.00;;
15614;SDS011;7907;51.368;6.730;2022-10-01T04:01:44;1.83;;;1.67;;
15614;SDS011;7907;51.368;6.730;2022-10-01T04:04:11;2.40;;;1.70;;
15614;SDS011;7907;51.368;6.730;2022-10-01T04:06:39;1.45;;;1.35;;
15614;SDS011;7907;51.368;6.730;2022-10-01T04:09:08;1.50;;;1.33;;
15614;SDS011;7907;51.368;6.730;2022-10-01T04:11:35;1.60;;;1.50;;
15614;SDS011;7907;51.368;6.730;2022-10-01T04:14:03;1.40;;;1.10;;
15614;SDS011;7907;51.368;6.730;2022-10-01T04:16:30;1.65;;;1.05;;
15614;SDS011;7907;51.368;6.730;2022-10-01T04:19:00;2.08;;;1.88;;
15614;SDS011;7907;51.368;6.730;2022-10-01T04:21:27;2.50;;;1.38;;
15614;SDS011;7907;51.368;6.730;2022-10-01T04:23:54;1.08;;;1.00;;
15614;SDS011;7907;51.368;6.730;2022-10-01T04:26:23;1.63;;;1.30;;
15614;SDS011;7907;51.368;6.730;2022-10-01T04:28:51;1.42;;;1.23;;
15614;SDS011;7907;51.368;6.730;2022-10-01T04:31:18;1.17;;;1.08;;
15614;SDS011;7907;51.368;6.730;2022-10-01T04:33:54;1.65;;;1.20;;
15614;SDS011;7907;51.368;6.730;2022-10-01T04:36:22;1.50;;;1.33;;
15614;SDS011;7907;51.368;6.730;2022-10-01T04:38:50;1.40;;;0.90;;
15614;SDS011;7907;51.368;6.730;2022-10-01T04:41:18;1.20;;;1.10;;
15614;SDS011;7907;51.368;6.730;2022-10-01T04:43:48;1.15;;;1.05;;
15614;SDS011;7907;51.368;6.730;2022-10-01T04:46:15;1.20;;;1.10;;
15614;SDS011;7907;51.368;6.730;2022-10-01T04:48:43;1.77;;;1.38;;
15614;SDS011;7907;51.368;6.730;2022-10-01T04:51:10;1.63;;;1.02;;
15614;SDS011;7907;51.368;6.730;2022-10-01T04:53:37;1.20;;;1.00;;
15614;SDS011;7907;51.368;6.730;2022-10-01T04:56:04;1.20;;;1.00;;
15614;SDS011;7907;51.368;6.730;2022-10-01T04:58:32;1.10;;;1.00;;
15614;SDS011;7907;51.368;6.730;2022-10-01T05:01:01;0.93;;;0.90;;
15614;SDS011;7907;51.368;6.730;2022-10-01T05:03:29;0.68;;;0.68;;
15614;SDS011;7907;51.368;6.730;2022-10-01T05:05:56;0.98;;;0.88;;
15614;SDS011;7907;51.368;6.730;2022-10-01T05:08:23;0.60;;;0.60;;
15614;SDS011;7907;51.368;6.730;2022-10-01T05:10:51;0.70;;;0.70;;
15614;SDS011;7907;51.368;6.730;2022-10-01T05:13:18;0.90;;;0.73;;
15614;SDS011;7907;51.368;6.730;2022-10-01T05:15:47;0.80;;;0.77;;
15614;SDS011;7907;51.368;6.730;2022-10-01T05:18:17;1.10;;;1.00;;
15614;SDS011;7907;51.368;6.730;2022-10-01T05:20:45;1.48;;;0.73;;
15614;SDS011;7907;51.368;6.730;2022-10-01T05:23:12;0.47;;;0.47;;
15614;SDS011;7907;51.368;6.730;2022-10-01T05:25:39;2.00;;;0.77;;
15614;SDS011;7907;51.368;6.730;2022-10-01T05:28:10;0.80;;;0.70;;
15614;SDS011;7907;51.368;6.730;2022-10-01T05:30:38;1.50;;;0.50;;
15614;SDS011;7907;51.368;6.730;2022-10-01T05:33:05;0.68;;;0.57;;
15614;SDS011;7907;51.368;6.730;2022-10-01T05:35:34;0.40;;;0.30;;
15614;SDS011;7907;51.368;6.730;2022-10-01T05:38:01;0.80;;;0.40;;
15614;SDS011;7907;51.368;6.730;2022-10-01T05:40:28;0.10;;;0.10;;
15614;SDS011;7907;51.368;6.730;2022-10-01T05:42:57;0.10;;;0.10;;
15614;SDS011;7907;51.368;6.730;2022-10-01T05:45:27;0.50;;;0.10;;
15614;SDS011;7907;51.368;6.730;2022-10-01T05:47:56;0.20;;;0.20;;
15614;SDS011;7907;51.368;6.730;2022-10-01T05:50:25;0.68;;;0.60;;
15614;SDS011;7907;51.368;6.730;2022-10-01T05:52:54;2.03;;;0.55;;
15614;SDS011;7907;51.368;6.730;2022-10-01T05:55:21;3.65;;;2.00;;
15614;SDS011;7907;51.368;6.730;2022-10-01T05:57:52;7.90;;;3.33;;
15614;SDS011;7907;51.368;6.730;2022-10-01T06:00:20;5.65;;;3.45;;
15614;SDS011;7907;51.368;6.730;2022-10-01T06:02:50;0.45;;;0.40;;
15614;SDS011;7907;51.368;6.730;2022-10-01T06:05:18;0.00;;;0.00;;
15614;SDS011;7907;51.368;6.730;2022-10-01T06:07:45;0.10;;;0.10;;
15614;SDS011;7907;51.368;6.730;2022-10-01T06:10:14;0.10;;;0.10;;
15614;SDS011;7907;51.368;6.730;2022-10-01T06:12:42;0.00;;;0.00;;
15614;SDS011;7907;51.368;6.730;2022-10-01T06:15:12;0.08;;;0.08;;
15614;SDS011;7907;51.368;6.730;2022-10-01T06:17:39;1.80;;;0.10;;
15614;SDS011;7907;51.368;6.730;2022-10-01T06:20:09;0.10;;;0.10;;
15614;SDS011;7907;51.368;6.730;2022-10-01T06:22:38;0.10;;;0.10;;
15614;SDS011;7907;51.368;6.730;2022-10-01T06:25:07;0.10;;;0.10;;
15614;SDS011;7907;51.368;6.730;2022-10-01T06:27:38;2.20;;;0.20;;
15614;SDS011;7907;51.368;6.730;2022-10-01T06:30:05;0.03;;;0.03;;
15614;SDS011;7907;51.368;6.730;2022-10-01T06:32:33;0.20;;;0.20;;
15614;SDS011;7907;51.368;6.730;2022-10-01T06:35:01;0.10;;;0.10;;
15614;SDS011;7907;51.368;6.730;2022-10-01T06:37:29;0.00;;;0.00;;
15614;SDS011;7907;51.368;6.730;2022-10-01T06:39:56;0.00;;;0.00;;
15614;SDS011;7907;51.368;6.730;2022-10-01T06:42:23;0.00;;;0.00;;
15614;SDS011;7907;51.368;6.730;2022-10-01T06:44:52;0.10;;;0.10;;
15614;SDS011;7907;51.368;6.730;2022-10-01T06:47:20;0.10;;;0.10;;
15614;SDS011;7907;51.368;6.730;2022-10-01T06:49:48;0.10;;;0.00;;
15614;SDS011;7907;51.368;6.730;2022-10-01T06:52:15;0.00;;;0.00;;
15614;SDS011;7907;51.368;6.730;2022-10-01T06:54:59;0.10;;;0.10;;
15614;SDS011;7907;51.368;6.730;2022-10-01T06:57:27;0.17;;;0.17;;
15614;SDS011;7907;51.368;6.730;2022-10-01T06:59:57;0.10;;;0.10;;
15614;SDS011;7907;51.368;6.730;2022-10-01T07:02:25;0.10;;;0.00;;
15614;SDS011;7907;51.368;6.730;2022-10-01T07:04:54;0.25;;;0.20;;
15614;SDS011;7907;51.368;6.730;2022-10-01T07:07:27;0.10;;;0.00;;
15614;SDS011;7907;51.368;6.730;2022-10-01T07:09:56;0.20;;;0.20;;
15614;SDS011;7907;51.368;6.730;2022-10-01T07:12:24;0.13;;;0.03;;
15614;SDS011;7907;51.368;6.730;2022-10-01T07:14:52;0.10;;;0.05;;
15614;SDS011;7907;51.368;6.730;2022-10-01T07:17:22;0.40;;;0.28;;
15614;SDS011;7907;51.368;6.730;2022-10-01T07:19:49;0.20;;;0.10;;
15614;SDS011;7907;51.368;6.730;2022-10-01T07:22:16;0.20;;;0.10;;
15614;SDS011;7907;51.368;6.730;2022-10-01T07:24:43;0.50;;;0.33;;
15614;SDS011;7907;51.368;6.730;2022-10-01T07:27:11;0.63;;;0.20;;
15614;SDS011;7907;51.368;6.730;2022-10-01T07:29:38;1.17;;;0.68;;
15614;SDS011;7907;51.368;6.730;2022-10-01T07:32:06;0.15;;;0.05;;
15614;SDS011;7907;51.368;6.730;2022-10-01T07:34:36;0.88;;;0.47;;
15614;SDS011;7907;51.368;6.730;2022-10-01T07:37:05;0.50;;;0.40;;
15614;SDS011;7907;51.368;6.730;2022-10-01T07:39:33;1.13;;;0.57;;
15614;SDS011;7907;51.368;6.730;2022-10-01T07:42:00;0.15;;;0.15;;
15614;SDS011;7907;51.368;6.730;2022-10-01T07:44:27;0.52;;;0.30;;
15614;SDS011;7907;51.368;6.730;2022-10-01T07:46:55;0.45;;;0.45;;
15614;SDS011;7907;51.368;6.730;2022-10-01T07:49:23;1.00;;;0.82;;
15614;SDS011;7907;51.368;6.730;2022-10-01T07:51:52;3.70;;;0.50;;
15614;SDS011;7907;51.368;6.730;2022-10-01T07:54:19;0.90;;;0.50;;
15614;SDS011;7907;51.368;6.730;2022-10-01T07:56:48;1.00;;;0.40;;
15614;SDS011;7907;51.368;6.730;2022-10-01T07:59:19;0.57;;;0.35;;
15614;SDS011;7907;51.368;6.730;2022-10-01T08:01:47;0.30;;;0.20;;
15614;SDS011;7907;51.368;6.730;2022-10-01T08:04:15;0.30;;;0.30;;
15614;SDS011;7907;51.368;6.730;2022-10-01T08:06:58;0.20;;;0.20;;
15614;SDS011;7907;51.368;6.730;2022-10-01T08:09:25;0.60;;;0.60;;
15614;SDS011;7907;51.368;6.730;2022-10-01T08:11:55;0.25;;;0.25;;
15614;SDS011;7907;51.368;6.730;2022-10-01T08:14:22;1.05;;;0.70;;
15614;SDS011;7907;51.368;6.730;2022-10-01T08:16:50;1.50;;;0.50;;
15614;SDS011;7907;51.368;6.730;2022-10-01T08:19:20;1.50;;;0.40;;
15614;SDS011;7907;51.368;6.730;2022-10-01T08:21:48;0.50;;;0.30;;
15614;SDS011;7907;51.368;6.730;2022-10-01T08:24:17;1.20;;;0.45;;
15614;SDS011;7907;51.368;6.730;2022-10-01T08:26:49;0.45;;;0.45;;
15614;SDS011;7907;51.368;6.730;2022-10-01T08:29:20;0.60;;;0.40;;
15614;SDS011;7907;51.368;6.730;2022-10-01T08:31:47;0.38;;;0.38;;
15614;SDS011;7907;51.368;6.730;2022-10-01T08:34:14;0.73;;;0.43;;
15614;SDS011;7907;51.368;6.730;2022-10-01T08:36:42;0.50;;;0.35;;
15614;SDS011;7907;51.368;6.730;2022-10-01T08:39:09;0.00;;;0.00;;
15614;SDS011;7907;51.368;6.730;2022-10-01T08:41:42;0.50;;;0.30;;
15614;SDS011;7907;51.368;6.730;2022-10-01T08:44:18;0.50;;;0.40;;
15614;SDS011;7907;51.368;6.730;2022-10-01T08:46:51;1.00;;;0.38;;
15614;SDS011;7907;51.368;6.730;2022-10-01T08:49:22;0.57;;;0.43;;
15614;SDS011;7907;51.368;6.730;2022-10-01T08:51:56;1.73;;;0.63;;
15614;SDS011;7907;51.368;6.730;2022-10-01T08:54:30;0.40;;;0.40;;
15614;SDS011;7907;51.368;6.730;2022-10-01T08:57:04;0.60;;;0.52;;
15614;SDS011;7907;51.368;6.730;2022-10-01T08:59:38;0.75;;;0.65;;
15614;SDS011;7907;51.368;6.730;2022-10-01T09:02:17;6.20;;;0.45;;
15614;SDS011;7907;51.368;6.730;2022-10-01T09:04:49;0.30;;;0.30;;
15614;SDS011;7907;51.368;6.730;2022-10-01T09:07:25;2.58;;;0.43;;
15614;SDS011;7907;51.368;6.730;2022-10-01T09:10:08;0.47;;;0.30;;
15614;SDS011;7907;51.368;6.730;2022-10-01T09:12:53;0.28;;;0.28;;
15614;SDS011;7907;51.368;6.730;2022-10-01T09:15:36;0.22;;;0.22;;
15614;SDS011;7907;51.368;6.730;2022-10-01T09:18:12;0.50;;;0.50;;
15614;SDS011;7907;51.368;6.730;2022-10-01T09:20:49;0.50;;;0.38;;
15614;SDS011;7907;51.368;6.730;2022-10-01T09:23:22;0.38;;;0.35;;
15614;SDS011;7907;51.368;6.730;2022-10-01T09:25:54;1.05;;;0.40;;
15614;SDS011;7907;51.368;6.730;2022-10-01T09:28:26;0.40;;;0.40;;
15614;SDS011;7907;51.368;6.730;2022-10-01T09:30:55;1.00;;;0.57;;
15614;SDS011;7907;51.368;6.730;2022-10-01T09:33:28;0.70;;;0.70;;
15614;SDS011;7907;51.368;6.730;2022-10-01T09:35:59;1.20;;;1.00;;
15614;SDS011;7907;51.368;6.730;2022-10-01T09:38:38;1.38;;;1.27;;
15614;SDS011;7907;51.368;6.730;2022-10-01T09:41:09;0.63;;;0.63;;
15614;SDS011;7907;51.368;6.730;2022-10-01T09:43:40;1.25;;;1.15;;
15614;SDS011;7907;51.368;6.730;2022-10-01T09:46:10;1.30;;;1.02;;
15614;SDS011;7907;51.368;6.730;2022-10-01T09:48:43;0.60;;;0.52;;
15614;SDS011;7907;51.368;6.730;2022-10-01T09:51:20;0.93;;;0.75;;
15614;SDS011;7907;51.368;6.730;2022-10-01T09:53:58;0.90;;;0.60;;
15614;SDS011;7907;51.368;6.730;2022-10-01T09:56:32;0.25;;;0.25;;
15614;SDS011;7907;51.368;6.730;2022-10-01T09:59:09;0.20;;;0.20;;
15614;SDS011;7907;51.368;6.730;2022-10-01T10:01:42;4.55;;;0.70;;
15614;SDS011;7907;51.368;6.730;2022-10-01T10:04:16;0.57;;;0.38;;
15614;SDS011;7907;51.368;6.730;2022-10-01T10:06:47;1.60;;;0.80;;
15614;SDS011;7907;51.368;6.730;2022-10-01T10:09:15;0.73;;;0.47;;
15614;SDS011;7907;51.368;6.730;2022-10-01T10:11:47;0.70;;;0.70;;
15614;SDS011;7907;51.368;6.730;2022-10-01T10:14:17;0.60;;;0.60;;
15614;SDS011;7907;51.368;6.730;2022-10-01T10:16:52;0.37;;;0.33;;
15614;SDS011;7907;51.368;6.730;2022-10-01T10:19:21;0.32;;;0.17;;
15614;SDS011;7907;51.368;6.730;2022-10-01T10:21:51;0.43;;;0.40;;
15614;SDS011;7907;51.368;6.730;2022-10-01T10:24:22;1.25;;;0.75;;
15614;SDS011;7907;51.368;6.730;2022-10-01T10:26:52;0.40;;;0.40;;
15614;SDS011;7907;51.368;6.730;2022-10-01T10:29:27;0.60;;;0.40;;
15614;SDS011;7907;51.368;6.730;2022-10-01T10:31:55;0.30;;;0.30;;
15614;SDS011;7907;51.368;6.730;2022-10-01T10:34:27;0.70;;;0.22;;
15614;SDS011;7907;51.368;6.730;2022-10-01T10:36:58;0.90;;;0.30;;
15614;SDS011;7907;51.368;6.730;2022-10-01T10:39:30;0.20;;;0.20;;
15614;SDS011;7907;51.368;6.730;2022-10-01T10:42:00;1.60;;;1.10;;
15614;SDS011;7907;51.368;6.730;2022-10-01T10:44:31;0.28;;;0.28;;
15614;SDS011;7907;51.368;6.730;2022-10-01T10:47:03;1.30;;;0.77;;
15614;SDS011;7907;51.368;6.730;2022-10-01T10:49:36;3.70;;;0.97;;
15614;SDS011;7907;51.368;6.730;2022-10-01T10:52:16;1.05;;;0.60;;
15614;SDS011;7907;51.368;6.730;2022-10-01T10:54:45;1.75;;;0.70;;
15614;SDS011;7907;51.368;6.730;2022-10-01T10:57:16;0.80;;;0.60;;
15614;SDS011;7907;51.368;6.730;2022-10-01T10:59:55;1.48;;;1.00;;
15614;SDS011;7907;51.368;6.730;2022-10-01T11:02:24;0.52;;;0.52;;
15614;SDS011;7907;51.368;6.730;2022-10-01T11:04:55;1.80;;;0.75;;
15614;SDS011;7907;51.368;6.730;2022-10-01T11:07:24;1.58;;;0.95;;
15614;SDS011;7907;51.368;6.730;2022-10-01T11:10:00;2.15;;;0.63;;
15614;SDS011;7907;51.368;6.730;2022-10-01T11:12:41;1.97;;;1.33;;
15614;SDS011;7907;51.368;6.730;2022-10-01T11:15:26;0.50;;;0.50;;
15614;SDS011;7907;51.368;6.730;2022-10-01T11:18:18;0.60;;;0.57;;
15614;SDS011;7907;51.368;6.730;2022-10-01T11:21:01;3.47;;;0.73;;
15614;SDS011;7907;51.368;6.730;2022-10-01T11:23:48;1.48;;;0.90;;
15614;SDS011;7907;51.368;6.730;2022-10-01T11:26:29;2.70;;;0.90;;
15614;SDS011;7907;51.368;6.730;2022-10-01T11:29:07;1.63;;;0.88;;
15614;SDS011;7907;51.368;6.730;2022-10-01T11:31:47;2.17;;;0.95;;
15614;SDS011;7907;51.368;6.730;2022-10-01T11:34:31;2.60;;;0.80;;
15614;SDS011;7907;51.368;6.730;2022-10-01T11:37:19;2.25;;;0.85;;
15614;SDS011;7907;51.368;6.730;2022-10-01T11:39:56;0.32;;;0.32;;
15614;SDS011;7907;51.368;6.730;2022-10-01T11:42:25;2.95;;;0.85;;
15614;SDS011;7907;51.368;6.730;2022-10-01T11:45:00;1.42;;;0.60;;
15614;SDS011;7907;51.368;6.730;2022-10-01T11:47:32;0.65;;;0.50;;
15614;SDS011;7907;51.368;6.730;2022-10-01T11:50:03;0.80;;;0.63;;
15614;SDS011;7907;51.368;6.730;2022-10-01T11:52:35;0.63;;;0.63;;
15614;SDS011;7907;51.368;6.730;2022-10-01T11:55:12;2.70;;;1.40;;
15614;SDS011;7907;51.368;6.730;2022-10-01T11:58:03;3.83;;;1.87;;
15614;SDS011;7907;51.368;6.730;2022-10-01T12:00:58;1.42;;;0.82;;
15614;SDS011;7907;51.368;6.730;2022-10-01T12:03:36;2.42;;;0.85;;
15614;SDS011;7907;51.368;6.730;2022-10-01T12:06:10;0.40;;;0.20;;
15614;SDS011;7907;51.368;6.730;2022-10-01T12:08:39;3.47;;;1.58;;
15614;SDS011;7907;51.368;6.730;2022-10-01T12:11:15;2.30;;;1.75;;
15614;SDS011;7907;51.368;6.730;2022-10-01T12:13:47;1.27;;;0.52;;
15614;SDS011;7907;51.368;6.730;2022-10-01T12:16:24;3.25;;;0.93;;
15614;SDS011;7907;51.368;6.730;2022-10-01T12:19:01;4.63;;;1.55;;
15614;SDS011;7907;51.368;6.730;2022-10-01T12:21:32;2.58;;;1.58;;
15614;SDS011;7907;51.368;6.730;2022-10-01T12:24:03;0.80;;;0.75;;
15614;SDS011;7907;51.368;6.730;2022-10-01T12:26:40;1.50;;;1.10;;
15614;SDS011;7907;51.368;6.730;2022-10-01T12:29:11;0.40;;;0.20;;
15614;SDS011;7907;51.368;6.730;2022-10-01T12:31:45;0.40;;;0.30;;
15614;SDS011;7907;51.368;6.730;2022-10-01T12:34:24;3.42;;;0.40;;
15614;SDS011;7907;51.368;6.730;2022-10-01T12:37:04;0.45;;;0.45;;
15614;SDS011;7907;51.368;6.730;2022-10-01T12:39:42;0.93;;;0.50;;
15614;SDS011;7907;51.368;6.730;2022-10-01T12:42:25;3.00;;;0.63;;
15614;SDS011;7907;51.368;6.730;2022-10-01T12:45:16;2.28;;;0.98;;
15614;SDS011;7907;51.368;6.730;2022-10-01T12:47:54;2.85;;;0.70;;
15614;SDS011;7907;51.368;6.730;2022-10-01T12:50:35;1.60;;;0.40;;
15614;SDS011;7907;51.368;6.730;2022-10-01T12:53:20;8.98;;;0.82;;
15614;SDS011;7907;51.368;6.730;2022-10-01T12:56:02;0.63;;;0.60;;
15614;SDS011;7907;51.368;6.730;2022-10-01T12:58:41;4.03;;;1.60;;
15614;SDS011;7907;51.368;6.730;2022-10-01T13:01:41;4.72;;;1.55;;
15614;SDS011;7907;51.368;6.730;2022-10-01T13:04:23;8.07;;;3.58;;
15614;SDS011;7907;51.368;6.730;2022-10-01T13:07:36;5.78;;;1.67;;
15614;SDS011;7907;51.368;6.730;2022-10-01T13:10:14;3.53;;;1.17;;
15614;SDS011;7907;51.368;6.730;2022-10-01T13:12:57;3.17;;;1.53;;
15614;SDS011;7907;51.368;6.730;2022-10-01T13:15:31;4.72;;;1.40;;
15614;SDS011;7907;51.368;6.730;2022-10-01T13:18:05;10.35;;;4.25;;
15614;SDS011;7907;51.368;6.730;2022-10-01T13:20:46;9.82;;;3.45;;
15614;SDS011;7907;51.368;6.730;2022-10-01T13:23:26;7.93;;;3.55;;
15614;SDS011;7907;51.368;6.730;2022-10-01T13:26:01;8.55;;;3.03;;
15614;SDS011;7907;51.368;6.730;2022-10-01T13:28:38;9.75;;;2.92;;
15614;SDS011;7907;51.368;6.730;2022-10-01T13:31:30;1.38;;;1.00;;
15614;SDS011;7907;51.368;6.730;2022-10-01T13:34:01;2.55;;;0.65;;
15614;SDS011;7907;51.368;6.730;2022-10-01T13:36:29;0.43;;;0.43;;
15614;SDS011;7907;51.368;6.730;2022-10-01T13:39:07;1.67;;;0.63;;
15614;SDS011;7907;51.368;6.730;2022-10-01T13:41:46;5.00;;;1.65;;
15614;SDS011;7907;51.368;6.730;2022-10-01T13:44:17;4.38;;;1.15;;
15614;SDS011;7907;51.368;6.730;2022-10-01T13:46:51;1.23;;;0.80;;
15614;SDS011;7907;51.368;6.730;2022-10-01T13:49:22;1.58;;;0.55;;
15614;SDS011;7907;51.368;6.730;2022-10-01T13:51:51;2.15;;;0.95;;
15614;SDS011;7907;51.368;6.730;2022-10-01T13:54:24;1.92;;;1.13;;
15614;SDS011;7907;51.368;6.730;2022-10-01T13:57:05;1.08;;;0.55;;
15614;SDS011;7907;51.368;6.730;2022-10-01T13:59:34;3.05;;;1.10;;
15614;SDS011;7907;51.368;6.730;2022-10-01T14:04:53;8.13;;;4.22;;
15614;SDS011;7907;51.368;6.730;2022-10-01T14:07:22;9.00;;;4.93;;
15614;SDS011;7907;51.368;6.730;2022-10-01T14:09:56;11.00;;;3.80;;
15614;SDS011;7907;51.368;6.730;2022-10-01T14:12:27;0.65;;;0.35;;
15614;SDS011;7907;51.368;6.730;2022-10-01T14:15:15;4.15;;;1.30;;
15614;SDS011;7907;51.368;6.730;2022-10-01T14:18:03;2.15;;;1.20;;
15614;SDS011;7907;51.368;6.730;2022-10-01T14:20:35;8.00;;;1.80;;
15614;SDS011;7907;51.368;6.730;2022-10-01T14:23:16;2.60;;;1.77;;
15614;SDS011;7907;51.368;6.730;2022-10-01T14:25:53;3.83;;;2.25;;
15614;SDS011;7907;51.368;6.730;2022-10-01T14:28:39;5.95;;;2.75;;
15614;SDS011;7907;51.368;6.730;2022-10-01T14:31:15;9.25;;;2.38;;
15614;SDS011;7907;51.368;6.730;2022-10-01T14:34:00;1.75;;;0.57;;
15614;SDS011;7907;51.368;6.730;2022-10-01T14:36:40;8.82;;;2.15;;
15614;SDS011;7907;51.368;6.730;2022-10-01T14:39:13;4.57;;;1.63;;
15614;SDS011;7907;51.368;6.730;2022-10-01T14:41:43;4.43;;;2.78;;
15614;SDS011;7907;51.368;6.730;2022-10-01T14:44:22;7.20;;;2.38;;
15614;SDS011;7907;51.368;6.730;2022-10-01T14:46:51;4.80;;;1.52;;
15614;SDS011;7907;51.368;6.730;2022-10-01T14:49:21;12.40;;;2.65;;
15614;SDS011;7907;51.368;6.730;2022-10-01T14:51:51;8.43;;;2.83;;
15614;SDS011;7907;51.368;6.730;2022-10-01T14:54:25;7.85;;;3.90;;
15614;SDS011;7907;51.368;6.730;2022-10-01T14:56:55;8.75;;;3.55;;
15614;SDS011;7907;51.368;6.730;2022-10-01T14:59:26;18.67;;;7.00;;
15614;SDS011;7907;51.368;6.730;2022-10-01T15:02:00;10.05;;;3.78;;
15614;SDS011;7907;51.368;6.730;2022-10-01T15:04:29;6.82;;;2.90;;
15614;SDS011;7907;51.368;6.730;2022-10-01T15:07:08;5.07;;;1.75;;
15614;SDS011;7907;51.368;6.730;2022-10-01T15:09:41;7.80;;;1.70;;
15614;SDS011;7907;51.368;6.730;2022-10-01T15:12:11;3.17;;;1.65;;
15614;SDS011;7907;51.368;6.730;2022-10-01T15:14:40;2.50;;;0.80;;
15614;SDS011;7907;51.368;6.730;2022-10-01T15:17:11;5.95;;;2.03;;
15614;SDS011;7907;51.368;6.730;2022-10-01T15:19:44;5.18;;;2.47;;
15614;SDS011;7907;51.368;6.730;2022-10-01T15:22:18;5.77;;;2.00;;
15614;SDS011;7907;51.368;6.730;2022-10-01T15:24:49;8.82;;;2.08;;
15614;SDS011;7907;51.368;6.730;2022-10-01T15:27:22;1.50;;;1.20;;
15614;SDS011;7907;51.368;6.730;2022-10-01T15:29:51;2.38;;;1.17;;
15614;SDS011;7907;51.368;6.730;2022-10-01T15:32:21;9.35;;;1.65;;
15614;SDS011;7907;51.368;6.730;2022-10-01T15:34:50;1.90;;;1.00;;
15614;SDS011;7907;51.368;6.730;2022-10-01T15:37:19;3.97;;;3.13;;
15614;SDS011;7907;51.368;6.730;2022-10-01T15:39:50;5.30;;;3.00;;